createdAt,value
2023-01-13T00:00:52.322Z,3.10
2023-01-13T00:03:37.313Z,3.10
2023-01-13T00:06:22.577Z,3.30
2023-01-13T00:09:05.578Z,2.70
2023-01-13T00:11:53.297Z,2.80
2023-01-13T00:14:37.134Z,3.00
2023-01-13T00:17:18.438Z,2.90
2023-01-13T00:20:00.294Z,3.00
2023-01-13T00:22:42.302Z,3.50
2023-01-13T00:25:23.125Z,3.70
2023-01-13T00:28:04.260Z,3.20
2023-01-13T00:30:45.111Z,3.10
2023-01-13T00:33:26.256Z,2.90
2023-01-13T00:36:08.115Z,3.10
2023-01-13T00:38:50.252Z,2.30
2023-01-13T00:41:32.120Z,2.60
2023-01-13T00:44:13.436Z,2.70
2023-01-13T00:46:55.319Z,2.70
2023-01-13T00:49:37.283Z,3.70
2023-01-13T00:52:19.276Z,2.60
2023-01-13T00:55:08.118Z,2.50
2023-01-13T00:57:42.656Z,2.90
2023-01-13T01:00:33.186Z,2.10
2023-01-13T01:03:19.306Z,1.90
2023-01-13T01:06:00.447Z,2.80
2023-01-13T01:08:43.140Z,2.30
2023-01-13T01:11:34.103Z,2.60
2023-01-13T01:14:17.130Z,2.00
2023-01-13T01:16:58.423Z,3.30
2023-01-13T01:19:44.316Z,2.90
2023-01-13T01:22:26.464Z,2.70
2023-01-13T01:25:24.098Z,2.80
2023-01-13T01:28:12.140Z,2.50
2023-01-13T01:30:55.161Z,1.90
2023-01-13T01:33:43.316Z,1.70
2023-01-13T01:36:27.114Z,2.50
2023-01-13T01:39:15.121Z,2.30
2023-01-13T01:42:08.861Z,2.40
2023-01-13T01:45:08.323Z,2.90
2023-01-13T01:47:50.102Z,1.70
2023-01-13T01:50:38.099Z,2.60
2023-01-13T01:53:17.233Z,2.10
2023-01-13T01:56:06.090Z,2.40
2023-01-13T01:58:58.108Z,2.30
2023-01-13T02:01:54.286Z,2.60
2023-01-13T02:04:47.124Z,2.70
2023-01-13T02:10:26.158Z,2.20
2023-01-13T02:13:17.110Z,2.10
2023-01-13T02:16:15.276Z,1.70
2023-01-13T02:19:12.103Z,1.90
2023-01-13T02:22:21.091Z,1.50
2023-01-13T02:25:20.304Z,1.60
2023-01-13T02:28:35.289Z,1.80
2023-01-13T02:31:39.163Z,2.60
2023-01-13T02:34:33.097Z,2.00
2023-01-13T02:37:14.228Z,1.80
2023-01-13T02:40:05.095Z,1.70
2023-01-13T02:43:23.078Z,1.70
2023-01-13T02:46:05.690Z,1.60
2023-01-13T02:48:56.080Z,1.60
2023-01-13T02:51:31.207Z,1.30
2023-01-13T02:54:27.092Z,1.30
2023-01-13T02:57:02.226Z,1.30
2023-01-13T02:59:52.034Z,1.70
2023-01-13T03:02:26.711Z,1.60
2023-01-13T03:05:16.225Z,1.60
2023-01-13T03:08:16.169Z,2.30
2023-01-13T03:11:28.023Z,2.00
2023-01-13T03:14:11.730Z,1.90
2023-01-13T03:17:35.221Z,1.70
2023-01-13T03:20:19.203Z,2.10
2023-01-13T03:23:31.224Z,2.00
2023-01-13T03:26:22.394Z,2.00
2023-01-13T03:29:35.219Z,1.50
2023-01-13T03:32:24.144Z,2.00
2023-01-13T03:35:13.999Z,2.00
2023-01-13T03:38:00.336Z,2.50
2023-01-13T03:40:46.213Z,2.60
2023-01-13T03:44:10.006Z,2.20
2023-01-13T03:47:04.995Z,2.30
2023-01-13T03:50:07.153Z,2.10
2023-01-13T03:53:18.998Z,2.60
2023-01-13T03:56:05.158Z,1.70
2023-01-13T03:58:56.218Z,1.70
2023-01-13T04:01:44.138Z,1.90
2023-01-13T04:04:46.013Z,2.70
2023-01-13T04:07:56.203Z,2.20
2023-01-13T04:10:56.215Z,2.20
2023-01-13T04:13:34.341Z,1.80
2023-01-13T04:16:22.010Z,1.90
2023-01-13T04:19:04.212Z,1.90
2023-01-13T04:21:45.668Z,1.80
2023-01-13T04:24:34.986Z,1.60
2023-01-13T04:27:09.459Z,2.40
2023-01-13T04:30:14.605Z,2.10
2023-01-13T04:32:53.391Z,2.00
2023-01-13T04:35:41.000Z,2.50
2023-01-13T04:38:24.982Z,2.20
2023-01-13T04:41:06.145Z,5.10
2023-01-13T04:43:47.001Z,1.90
2023-01-13T04:46:28.144Z,2.40
2023-01-13T04:49:09.995Z,3.20
2023-01-13T04:51:58.021Z,3.40
2023-01-13T04:54:39.009Z,3.10
2023-01-13T04:57:27.003Z,3.20
2023-01-13T05:00:02.573Z,2.60
2023-01-13T05:02:50.194Z,3.30
2023-01-13T05:05:26.870Z,3.60
2023-01-13T05:08:16.012Z,3.50
2023-01-13T05:10:51.174Z,4.00
2023-01-13T05:13:57.213Z,4.20
2023-01-13T05:16:56.026Z,4.60
2023-01-13T05:19:41.103Z,5.10
2023-01-13T05:22:40.982Z,4.90
2023-01-13T05:25:23.384Z,3.90
2023-01-13T05:28:12.226Z,3.20
2023-01-13T05:30:51.305Z,3.50
2023-01-13T05:33:39.207Z,3.10
2023-01-13T05:36:14.124Z,3.10
2023-01-13T05:39:01.985Z,1.70
2023-01-13T05:41:55.708Z,2.00
2023-01-13T05:44:43.989Z,2.40
2023-01-13T05:47:25.922Z,1.70
2023-01-13T05:50:14.981Z,2.20
2023-01-13T05:52:50.171Z,1.90
2023-01-13T05:55:38.193Z,2.10
2023-01-13T05:58:17.137Z,2.20
2023-01-13T06:01:10.089Z,1.80
2023-01-13T06:03:51.213Z,2.60
2023-01-13T06:06:32.983Z,2.60
2023-01-13T06:09:20.989Z,3.20
2023-01-13T06:11:55.418Z,3.50
2023-01-13T06:14:48.992Z,3.00
2023-01-13T06:17:23.400Z,4.10
2023-01-13T06:20:11.083Z,3.80
2023-01-13T06:22:50.684Z,4.20
2023-01-13T06:28:40.021Z,4.00
2023-01-13T06:31:15.156Z,3.40
2023-01-13T06:34:05.979Z,3.40
2023-01-13T06:36:47.175Z,2.40
2023-01-13T06:39:37.989Z,2.90
2023-01-13T06:42:31.586Z,3.00
2023-01-13T06:45:19.974Z,4.00
2023-01-13T06:47:57.235Z,2.80
2023-01-13T06:50:45.077Z,2.60
2023-01-13T06:53:20.123Z,2.70
2023-01-13T06:56:07.963Z,2.60
2023-01-13T06:58:42.112Z,3.20
2023-01-13T07:01:30.034Z,3.00
2023-01-13T07:04:05.245Z,3.70
2023-01-13T07:06:53.065Z,3.60
2023-01-13T07:09:34.972Z,3.60
2023-01-13T07:12:30.060Z,3.80
2023-01-13T07:15:27.017Z,4.10
2023-01-13T07:18:02.146Z,6.20
2023-01-13T07:20:49.963Z,4.80
2023-01-13T07:23:30.969Z,4.90
2023-01-13T07:26:26.061Z,4.00
2023-01-13T07:29:13.958Z,3.80
2023-01-13T07:31:49.994Z,3.70
2023-01-13T07:34:37.962Z,3.00
2023-01-13T07:37:20.096Z,3.60
2023-01-13T07:40:08.966Z,2.80
2023-01-13T07:43:03.927Z,3.10
2023-01-13T07:45:52.029Z,3.30
2023-01-13T07:48:27.146Z,3.30
2023-01-13T07:51:16.969Z,4.80
2023-01-13T07:53:58.980Z,3.60
2023-01-13T07:56:46.972Z,4.00
2023-01-13T07:59:22.101Z,5.30
2023-01-13T08:02:10.214Z,3.60
2023-01-13T08:04:51.918Z,4.10
2023-01-13T08:07:46.998Z,3.30
2023-01-13T08:10:35.050Z,2.60
2023-01-13T08:13:21.403Z,2.40
2023-01-13T08:18:48.113Z,1.60
2023-01-13T08:21:36.058Z,1.60
2023-01-13T08:24:17.979Z,1.50
2023-01-13T08:27:12.961Z,1.20
2023-01-13T08:30:00.977Z,1.30
2023-01-13T08:32:36.221Z,1.30
2023-01-13T08:35:24.966Z,1.30
2023-01-13T08:38:00.278Z,1.40
2023-01-13T08:40:47.961Z,1.20
2023-01-13T08:43:29.063Z,1.30
2023-01-13T08:46:13.208Z,1.60
2023-01-13T08:48:54.148Z,1.30
2023-01-13T08:51:36.038Z,1.60
2023-01-13T08:54:24.983Z,1.80
2023-01-13T08:56:59.546Z,1.60
2023-01-13T08:59:48.083Z,1.30
2023-01-13T09:02:23.757Z,1.90
2023-01-13T09:05:16.189Z,1.20
2023-01-13T09:08:03.196Z,1.40
2023-01-13T09:10:45.324Z,1.50
2023-01-13T09:13:29.531Z,1.40
2023-01-13T09:16:11.170Z,1.80
2023-01-13T09:18:58.952Z,1.60
2023-01-13T09:21:41.047Z,1.30
2023-01-13T09:24:36.954Z,1.10
2023-01-13T09:27:24.951Z,1.30
2023-01-13T09:30:00.246Z,1.60
2023-01-13T09:32:47.949Z,1.60
2023-01-13T09:35:23.093Z,1.30
2023-01-13T09:38:11.069Z,1.70
2023-01-13T09:40:53.976Z,1.40
2023-01-13T09:44:00.101Z,1.40
2023-01-13T09:46:44.137Z,1.20
2023-01-13T09:49:37.949Z,1.00
2023-01-13T09:52:20.993Z,0.90
2023-01-13T09:55:31.980Z,4.50
2023-01-13T09:58:23.946Z,6.90
2023-01-13T10:01:07.122Z,3.60
2023-01-13T10:03:56.017Z,4.30
2023-01-13T10:06:45.950Z,5.50
2023-01-13T10:09:45.941Z,3.70
2023-01-13T10:12:57.008Z,7.30
2023-01-13T10:15:38.852Z,2.70
2023-01-13T10:18:34.977Z,9.50
2023-01-13T10:21:27.869Z,5.20
2023-01-13T10:24:40.936Z,6.40
2023-01-13T10:27:32.069Z,2.80
2023-01-13T10:30:40.077Z,3.10
2023-01-13T10:33:31.991Z,2.90
2023-01-13T10:36:19.943Z,2.80
2023-01-13T10:38:57.870Z,3.30
2023-01-13T10:41:45.979Z,3.30
2023-01-13T10:44:24.086Z,6.00
2023-01-13T10:47:26.975Z,8.30
2023-01-13T10:50:36.005Z,6.40
2023-01-13T10:53:31.001Z,3.20
2023-01-13T10:56:17.941Z,3.90
2023-01-13T10:59:33.961Z,3.00
2023-01-13T11:02:36.086Z,3.60
2023-01-13T11:05:37.940Z,3.80
2023-01-13T11:08:28.998Z,3.90
2023-01-13T11:11:12.944Z,3.20
2023-01-13T11:14:15.415Z,3.80
2023-01-13T11:17:06.947Z,3.30
2023-01-13T11:19:46.717Z,3.60
2023-01-13T11:22:41.019Z,4.50
2023-01-13T11:25:41.809Z,5.80
2023-01-13T11:28:57.959Z,4.80
2023-01-13T11:31:51.014Z,3.70
2023-01-13T11:34:48.011Z,3.30
2023-01-13T11:37:28.027Z,3.30
2023-01-13T11:40:27.969Z,4.10
2023-01-13T11:43:16.989Z,4.90
2023-01-13T11:46:02.137Z,2.80
2023-01-13T11:48:44.935Z,3.80
2023-01-13T11:51:42.941Z,3.10
2023-01-13T11:54:32.526Z,3.80
2023-01-13T11:57:31.942Z,3.50
2023-01-13T12:00:48.092Z,2.70
2023-01-13T12:06:38.073Z,2.10
2023-01-13T12:09:35.957Z,3.50
2023-01-13T12:12:19.630Z,3.20
2023-01-13T12:15:36.947Z,3.00
2023-01-13T12:18:45.943Z,2.30
2023-01-13T12:21:37.905Z,1.50
2023-01-13T12:24:13.482Z,1.50
2023-01-13T12:27:12.986Z,1.70
2023-01-13T12:30:09.007Z,1.90
2023-01-13T12:32:57.928Z,1.50
2023-01-13T12:36:14.937Z,1.50
2023-01-13T12:39:12.958Z,1.30
2023-01-13T12:42:22.922Z,2.00
2023-01-13T12:45:27.920Z,1.30
2023-01-13T12:49:04.011Z,1.90
2023-01-13T12:51:57.937Z,1.80
2023-01-13T12:54:54.934Z,1.90
2023-01-13T12:57:50.965Z,2.60
2023-01-13T13:00:44.956Z,2.20
2023-01-13T13:03:26.931Z,1.70
2023-01-13T13:06:34.922Z,1.60
2023-01-13T13:10:28.014Z,2.10
2023-01-13T13:13:26.928Z,1.00
2023-01-13T13:16:26.796Z,1.00
2023-01-13T13:19:32.991Z,1.50
2023-01-13T13:22:23.950Z,1.80
2023-01-13T13:25:11.060Z,1.40
2023-01-13T13:28:04.985Z,1.40
2023-01-13T13:30:58.983Z,1.00
2023-01-13T13:33:52.943Z,0.90
2023-01-13T13:36:37.200Z,1.00
2023-01-13T13:39:47.963Z,1.10
2023-01-13T13:42:55.001Z,1.20
2023-01-13T13:45:56.087Z,1.60
2023-01-13T13:48:38.876Z,2.10
2023-01-13T13:51:40.099Z,1.40
2023-01-13T13:54:24.102Z,1.30
2023-01-13T13:57:05.927Z,1.40
2023-01-13T13:59:47.233Z,1.80
2023-01-13T14:02:38.935Z,1.70
2023-01-13T14:08:24.979Z,1.40
2023-01-13T14:11:06.050Z,1.30
2023-01-13T14:13:46.919Z,1.30
2023-01-13T14:16:28.344Z,1.90
2023-01-13T14:19:09.882Z,1.40
2023-01-13T14:22:02.249Z,2.20
2023-01-13T14:24:57.206Z,1.70
2023-01-13T14:27:57.202Z,1.80
2023-01-13T14:30:52.135Z,1.50
2023-01-13T14:33:52.883Z,2.70
2023-01-13T14:36:31.231Z,1.40
2023-01-13T14:39:21.937Z,1.40
2023-01-13T14:42:04.262Z,2.20
2023-01-13T14:44:56.271Z,2.50
2023-01-13T14:47:42.854Z,2.30
2023-01-13T14:50:41.827Z,2.40
2023-01-13T14:53:53.854Z,2.20
2023-01-13T14:56:49.115Z,2.10
2023-01-13T14:59:58.970Z,2.60
2023-01-13T15:02:36.219Z,3.20
2023-01-13T15:05:26.852Z,2.70
2023-01-13T15:08:19.692Z,2.40
2023-01-13T15:11:19.838Z,3.10
2023-01-13T15:14:17.588Z,2.60
2023-01-13T15:16:58.971Z,3.40
2023-01-13T15:19:47.011Z,3.90
2023-01-13T15:22:29.715Z,4.00
2023-01-13T15:25:15.611Z,3.60
2023-01-13T15:27:58.826Z,3.50
2023-01-13T15:30:48.270Z,3.00
2023-01-13T15:33:24.806Z,3.10
2023-01-13T15:36:44.863Z,2.60
2023-01-13T15:39:39.825Z,2.20
2023-01-13T15:42:45.840Z,3.20
2023-01-13T15:45:45.952Z,3.40
2023-01-13T15:48:41.204Z,3.00
2023-01-13T15:51:24.211Z,2.90
2023-01-13T15:54:12.029Z,3.00
2023-01-13T15:57:00.085Z,2.80
2023-01-13T15:59:49.112Z,1.70
2023-01-13T16:02:31.584Z,2.60
2023-01-13T16:05:19.977Z,2.80
2023-01-13T16:07:54.975Z,2.80
2023-01-13T16:10:43.585Z,3.50
2023-01-13T16:13:19.976Z,4.40
2023-01-13T16:16:07.850Z,3.60
2023-01-13T16:18:49.842Z,2.30
2023-01-13T16:21:44.835Z,2.20
2023-01-13T16:24:32.871Z,2.70
2023-01-13T16:27:15.848Z,2.70
2023-01-13T16:30:03.863Z,3.00
2023-01-13T16:32:45.859Z,1.70
2023-01-13T16:35:29.052Z,2.30
2023-01-13T16:38:22.217Z,2.50
2023-01-13T16:40:57.399Z,2.30
2023-01-13T16:43:45.441Z,1.70
2023-01-13T16:46:27.882Z,2.40
2023-01-13T16:49:11.670Z,2.50
2023-01-13T16:51:52.891Z,2.00
2023-01-13T16:54:34.003Z,1.80
2023-01-13T16:57:19.885Z,2.10
2023-01-13T17:00:03.114Z,1.90
2023-01-13T17:02:47.873Z,2.30
2023-01-13T17:05:37.913Z,3.10
2023-01-13T17:08:18.218Z,1.80
2023-01-13T17:11:05.931Z,1.90
2023-01-13T17:14:00.898Z,2.10
2023-01-13T17:17:03.931Z,2.00
2023-01-13T17:19:39.042Z,2.70
2023-01-13T17:22:27.999Z,2.30
2023-01-13T17:25:03.117Z,2.20
2023-01-13T17:27:57.885Z,2.60
2023-01-13T17:30:46.123Z,3.00
2023-01-13T17:33:21.074Z,3.00
2023-01-13T17:36:09.077Z,2.40
2023-01-13T17:38:57.898Z,2.50
2023-01-13T17:41:32.411Z,1.90
2023-01-13T17:44:19.938Z,3.10
2023-01-13T17:47:01.177Z,2.90
2023-01-13T17:49:49.943Z,3.10
2023-01-13T17:52:31.894Z,2.30
2023-01-13T17:55:20.360Z,2.70
2023-01-13T17:58:02.453Z,2.80
2023-01-13T18:00:49.875Z,2.70
2023-01-13T18:03:24.450Z,2.80
2023-01-13T18:06:19.936Z,3.20
2023-01-13T18:08:54.761Z,4.70
2023-01-13T18:11:42.869Z,4.30
2023-01-13T18:14:18.680Z,4.00
2023-01-13T18:17:07.894Z,4.10
2023-01-13T18:20:07.872Z,5.40
2023-01-13T18:23:21.384Z,4.80
2023-01-13T18:26:14.447Z,3.50
2023-01-13T18:28:55.888Z,4.20
2023-01-13T18:31:38.283Z,4.80
2023-01-13T18:34:21.964Z,4.00
2023-01-13T18:37:03.031Z,4.20
2023-01-13T18:39:47.587Z,4.00
2023-01-13T18:42:48.153Z,3.80
2023-01-13T18:45:39.518Z,3.80
2023-01-13T18:48:22.343Z,3.80
2023-01-13T18:51:05.009Z,4.70
2023-01-13T18:53:50.089Z,3.20
2023-01-13T18:56:33.354Z,3.50
2023-01-13T18:59:15.364Z,4.60
2023-01-13T19:01:57.175Z,3.70
2023-01-13T19:04:47.003Z,3.60
2023-01-13T19:07:35.885Z,4.00
2023-01-13T19:10:24.893Z,4.20
2023-01-13T19:13:02.078Z,4.10
2023-01-13T19:15:53.095Z,3.30
2023-01-13T19:18:28.257Z,3.80
2023-01-13T19:21:18.297Z,4.10
2023-01-13T19:23:55.271Z,3.50
2023-01-13T19:26:44.066Z,3.80
2023-01-13T19:29:25.067Z,3.90
2023-01-13T19:32:06.758Z,4.00
2023-01-13T19:34:53.971Z,4.50
2023-01-13T19:37:48.099Z,4.00
2023-01-13T19:40:30.375Z,4.60
2023-01-13T19:43:32.115Z,4.20
2023-01-13T19:46:21.109Z,4.10
2023-01-13T19:49:05.591Z,3.80
2023-01-13T19:52:02.907Z,3.50
2023-01-13T19:54:52.869Z,3.70
2023-01-13T19:57:41.521Z,3.90
2023-01-13T20:00:36.913Z,4.00
2023-01-13T20:03:37.857Z,4.20
2023-01-13T20:06:26.169Z,4.00
2023-01-13T20:09:01.115Z,4.10
2023-01-13T20:11:48.920Z,4.40
2023-01-13T20:14:30.899Z,4.60
2023-01-13T20:17:30.782Z,5.10
2023-01-13T20:20:18.868Z,4.70
2023-01-13T20:22:54.196Z,5.30
2023-01-13T20:25:41.938Z,5.70
2023-01-13T20:28:20.306Z,5.70
2023-01-13T20:31:16.118Z,5.00
2023-01-13T20:33:58.126Z,6.40
2023-01-13T20:36:54.873Z,6.10
2023-01-13T20:39:42.867Z,6.40
2023-01-13T20:42:36.842Z,7.00
2023-01-13T20:45:33.881Z,6.70
2023-01-13T20:48:21.988Z,5.60
2023-01-13T20:51:07.879Z,4.90
2023-01-13T20:53:56.868Z,3.10
2023-01-13T20:56:38.869Z,2.60
2023-01-13T20:59:31.028Z,2.50
2023-01-13T21:02:08.695Z,2.60
2023-01-13T21:04:56.870Z,2.70
2023-01-13T21:07:38.877Z,2.80
2023-01-13T21:10:33.869Z,3.30
2023-01-13T21:13:40.936Z,2.80
2023-01-13T21:16:23.873Z,2.10
2023-01-13T21:19:14.945Z,2.40
2023-01-13T21:21:50.145Z,2.10
2023-01-13T21:24:37.871Z,2.30
2023-01-13T21:27:13.042Z,2.30
2023-01-13T21:30:00.948Z,2.60
2023-01-13T21:32:36.001Z,2.50
2023-01-13T21:35:23.906Z,2.20
2023-01-13T21:37:59.014Z,2.50
2023-01-13T21:40:46.840Z,2.20
2023-01-13T21:43:40.615Z,2.20
2023-01-13T21:46:48.889Z,2.60
2023-01-13T21:49:24.149Z,2.20
2023-01-13T21:52:12.842Z,2.30
2023-01-13T21:55:12.835Z,2.10
2023-01-13T21:58:01.913Z,2.70
2023-01-13T22:00:49.980Z,2.80
2023-01-13T22:03:25.256Z,2.70
2023-01-13T22:06:13.881Z,2.60
2023-01-13T22:08:55.083Z,2.40
2023-01-13T22:11:37.783Z,1.90
2023-01-13T22:14:20.835Z,2.60
2023-01-13T22:17:10.905Z,2.30
2023-01-13T22:19:51.885Z,2.80
2023-01-13T22:22:37.033Z,2.90
2023-01-13T22:25:19.850Z,2.90
2023-01-13T22:28:15.835Z,2.80
2023-01-13T22:31:03.900Z,3.00
2023-01-13T22:33:38.983Z,2.70
2023-01-13T22:36:27.955Z,2.70
2023-01-13T22:39:05.174Z,3.10
2023-01-13T22:41:54.629Z,3.20
2023-01-13T22:44:29.496Z,3.90
2023-01-13T22:47:19.159Z,3.50
2023-01-13T22:50:01.834Z,3.00
2023-01-13T22:52:44.602Z,3.80
2023-01-13T22:55:34.094Z,3.70
2023-01-13T22:58:08.496Z,3.40
2023-01-13T23:00:56.858Z,3.70
2023-01-13T23:03:31.328Z,3.30
2023-01-13T23:06:19.018Z,3.40
2023-01-13T23:08:54.196Z,3.40
2023-01-13T23:11:43.007Z,3.00
2023-01-13T23:14:17.945Z,2.80
2023-01-13T23:17:05.919Z,2.50
2023-01-13T23:19:46.911Z,2.90
2023-01-13T23:22:27.990Z,2.60
2023-01-13T23:25:08.856Z,2.80
2023-01-13T23:28:04.052Z,2.40
2023-01-13T23:30:51.881Z,2.40
2023-01-13T23:33:26.962Z,2.20
2023-01-13T23:36:17.836Z,1.70
2023-01-13T23:38:53.016Z,2.10
2023-01-13T23:41:40.834Z,1.90
2023-01-13T23:44:15.958Z,1.50
2023-01-13T23:47:04.039Z,1.40
2023-01-13T23:49:46.038Z,1.80
2023-01-13T23:52:33.876Z,1.70
2023-01-13T23:55:10.029Z,1.90
2023-01-13T23:57:57.829Z,1.60
